Pagina principale
METAR-TAF:

METAR-TAF

Aeroporti :

Vannes, Francia

latitudine: 47-43-19N, longitudine: 2-43-41W, altezza: 130 m

Osservazione

Il bollettino è stato emesso 36 minuti fa, alle 08:00 UTC
Vento 3 kt da sud-ovest, variando fra sud/sud-ovest e ovest
Temperature 5°C
Umidità 93%
Pressione 1013 hPa
Visibilità 10 km o più

METAR: LFRV 110800Z AUTO 23003KT 200V260 9999 ///TCU 05/04 Q1013

Ora: 09:36 (08:36 UTC)


TAF: mancante

Osservazioni e previsioni meteorologiche di più di 4000 aeroporti (messaggi METAR e TAF).

Le stazioni disponibili sono rappresentate dai dischi gialli e rossi sulla carta.

Puntare il mouse per vedere il nome della stazione.

Clicca sopra per visualizzare le osservazioni e previsioni meteorologiche.

Per cambiare la mappa : fare clic sui pulsanti verdi con una croce nera per ingrandire, il pulsante verde con un trattino per diminuire, o sulla freccia verde per le mappe adiacenti.


METAR-TAF: